createdAt,value
2023-02-19T00:01:28.333Z,55.20
2023-02-19T00:03:57.505Z,54.88
2023-02-19T00:06:26.795Z,54.72
2023-02-19T00:08:53.810Z,54.89
2023-02-19T00:11:22.946Z,54.96
2023-02-19T00:13:52.810Z,54.73
2023-02-19T00:16:22.992Z,54.78
2023-02-19T00:18:50.245Z,54.72
2023-02-19T00:21:17.739Z,54.66
2023-02-19T00:23:48.011Z,54.94
2023-02-19T00:26:18.670Z,55.07
2023-02-19T00:28:46.964Z,55.20
2023-02-19T00:31:22.543Z,55.05
2023-02-19T00:33:51.076Z,54.93
2023-02-19T00:36:17.873Z,55.14
2023-02-19T00:38:44.792Z,55.15
2023-02-19T00:41:12.977Z,55.02
2023-02-19T00:43:39.411Z,54.98
2023-02-19T00:46:05.975Z,54.86
2023-02-19T00:48:32.475Z,54.86
2023-02-19T00:50:58.979Z,54.85
2023-02-19T00:53:25.468Z,54.85
2023-02-19T00:55:51.914Z,54.69
2023-02-19T00:58:18.438Z,54.68
2023-02-19T01:00:44.923Z,54.54
2023-02-19T01:03:11.375Z,54.53
2023-02-19T01:05:37.865Z,54.61
2023-02-19T01:08:04.539Z,54.57
2023-02-19T01:10:31.019Z,54.34
2023-02-19T01:12:57.530Z,54.61
2023-02-19T01:15:24.043Z,54.60
2023-02-19T01:17:50.505Z,54.53
2023-02-19T01:20:17.187Z,54.53
2023-02-19T01:22:43.649Z,54.62
2023-02-19T01:25:10.170Z,54.60
2023-02-19T01:27:36.640Z,54.70
2023-02-19T01:30:03.361Z,54.71
2023-02-19T01:32:29.824Z,54.94
2023-02-19T01:34:56.277Z,54.99
2023-02-19T01:37:22.711Z,55.04
2023-02-19T01:39:49.181Z,55.31
2023-02-19T01:42:17.134Z,55.66
2023-02-19T01:44:43.545Z,55.97
2023-02-19T01:47:09.998Z,56.43
2023-02-19T01:49:43.790Z,56.65
2023-02-19T01:52:21.337Z,56.93
2023-02-19T01:54:48.884Z,57.19
2023-02-19T01:57:21.961Z,57.27
2023-02-19T01:59:54.531Z,57.32
2023-02-19T02:02:22.370Z,57.54
2023-02-19T02:04:48.904Z,57.61
2023-02-19T02:07:16.212Z,57.54
2023-02-19T02:09:42.694Z,57.72
2023-02-19T02:12:09.305Z,57.75
2023-02-19T02:14:38.912Z,57.99
2023-02-19T02:17:25.398Z,57.99
2023-02-19T02:20:07.062Z,58.02
2023-02-19T02:22:38.055Z,58.15
2023-02-19T02:25:46.347Z,58.46
2023-02-19T02:28:31.138Z,58.46
2023-02-19T02:31:10.054Z,58.53
2023-02-19T02:33:44.701Z,58.66
2023-02-19T02:36:27.050Z,58.60
2023-02-19T02:38:55.447Z,58.67
2023-02-19T02:41:22.454Z,58.76
2023-02-19T02:43:49.065Z,58.69
2023-02-19T02:46:22.911Z,58.84
2023-02-19T02:48:57.121Z,58.71
2023-02-19T02:51:31.977Z,58.59
2023-02-19T02:54:04.426Z,58.42
2023-02-19T02:56:31.265Z,58.39
2023-02-19T02:59:02.594Z,58.27
2023-02-19T03:01:35.024Z,58.13
2023-02-19T03:04:06.597Z,58.14
2023-02-19T03:06:34.548Z,58.17
2023-02-19T03:09:16.575Z,58.18
2023-02-19T03:11:48.412Z,58.32
2023-02-19T03:14:30.591Z,58.43
2023-02-19T03:17:03.740Z,58.56
2023-02-19T03:19:35.351Z,58.38
2023-02-19T03:22:06.214Z,58.49
2023-02-19T03:24:35.568Z,58.83
2023-02-19T03:27:05.096Z,58.98
2023-02-19T03:29:34.492Z,58.94
2023-02-19T03:32:06.976Z,59.06
2023-02-19T03:34:41.611Z,58.98
2023-02-19T03:37:25.276Z,58.94
2023-02-19T03:39:53.925Z,59.13
2023-02-19T03:42:44.667Z,59.10
2023-02-19T03:45:30.865Z,59.09
2023-02-19T03:48:21.093Z,59.27
2023-02-19T03:50:58.712Z,59.29
2023-02-19T03:53:51.975Z,59.24
2023-02-19T03:56:52.347Z,59.24
2023-02-19T04:00:03.515Z,59.37
2023-02-19T04:02:35.989Z,59.38
2023-02-19T04:05:14.044Z,59.26
2023-02-19T04:07:45.200Z,59.13
2023-02-19T04:10:14.203Z,59.18
2023-02-19T04:12:46.267Z,59.07
2023-02-19T04:15:18.814Z,59.09
2023-02-19T04:17:59.021Z,59.28
2023-02-19T04:20:29.868Z,59.23
2023-02-19T04:22:57.323Z,59.11
2023-02-19T04:25:26.491Z,59.12
2023-02-19T04:27:53.210Z,59.25
2023-02-19T04:30:19.710Z,59.02
2023-02-19T04:32:46.203Z,58.97
2023-02-19T04:35:12.706Z,59.03
2023-02-19T04:37:39.233Z,58.98
2023-02-19T04:40:06.097Z,59.00
2023-02-19T04:42:32.666Z,58.92
2023-02-19T04:44:59.223Z,58.96
2023-02-19T04:47:25.708Z,59.00
2023-02-19T04:49:52.187Z,58.95
2023-02-19T04:52:18.655Z,59.03
2023-02-19T04:54:45.144Z,59.05
2023-02-19T04:57:11.713Z,58.96
2023-02-19T04:59:38.206Z,58.90
2023-02-19T05:02:04.702Z,58.91
2023-02-19T05:04:31.339Z,58.84
2023-02-19T05:06:57.880Z,59.04
2023-02-19T05:09:24.417Z,59.00
2023-02-19T05:11:50.901Z,58.94
2023-02-19T05:14:17.396Z,58.80
2023-02-19T05:16:43.885Z,58.94
2023-02-19T05:19:13.608Z,58.99
2023-02-19T05:21:40.164Z,59.36
2023-02-19T05:24:07.198Z,59.80
2023-02-19T05:26:34.116Z,60.42
2023-02-19T05:29:00.905Z,60.76
2023-02-19T05:31:27.462Z,61.36
2023-02-19T05:33:56.762Z,61.44
2023-02-19T05:36:23.489Z,61.79
2023-02-19T05:38:57.437Z,61.99
2023-02-19T05:41:29.116Z,62.20
2023-02-19T05:43:56.983Z,62.36
2023-02-19T05:46:27.300Z,62.55
2023-02-19T05:48:54.370Z,62.73
2023-02-19T05:51:23.740Z,62.94
2023-02-19T05:53:50.699Z,62.98
2023-02-19T05:56:23.070Z,63.06
2023-02-19T05:58:49.885Z,63.57
2023-02-19T06:01:17.894Z,63.67
2023-02-19T06:03:44.422Z,63.59
2023-02-19T06:06:14.390Z,63.75
2023-02-19T06:08:40.943Z,64.06
2023-02-19T06:11:07.495Z,64.00
2023-02-19T06:13:34.071Z,64.38
2023-02-19T06:16:04.306Z,64.72
2023-02-19T06:18:30.904Z,64.81
2023-02-19T06:21:02.293Z,65.50
2023-02-19T06:23:29.560Z,65.43
2023-02-19T06:26:05.566Z,65.88
2023-02-19T06:28:32.043Z,66.04
2023-02-19T06:30:59.209Z,66.04
2023-02-19T06:33:26.986Z,66.43
2023-02-19T06:35:53.991Z,66.66
2023-02-19T06:38:23.695Z,66.74
2023-02-19T06:40:50.177Z,66.99
2023-02-19T06:43:16.740Z,67.08
2023-02-19T06:45:43.335Z,67.19
2023-02-19T06:48:09.810Z,67.38
2023-02-19T06:50:36.297Z,67.21
2023-02-19T06:53:02.842Z,67.27
2023-02-19T06:55:29.311Z,67.50
2023-02-19T06:57:55.786Z,67.52
2023-02-19T07:00:22.394Z,67.24
2023-02-19T07:02:48.870Z,67.17
2023-02-19T07:05:15.402Z,67.20
2023-02-19T07:07:41.859Z,67.16
2023-02-19T07:10:08.371Z,67.28
2023-02-19T07:12:34.822Z,67.36
2023-02-19T07:15:01.291Z,67.41
2023-02-19T07:17:27.774Z,67.36
2023-02-19T07:19:54.302Z,67.39
2023-02-19T07:22:21.078Z,67.41
2023-02-19T07:24:48.041Z,67.38
2023-02-19T07:27:14.571Z,67.45
2023-02-19T07:29:41.044Z,67.56
2023-02-19T07:32:07.615Z,67.70
2023-02-19T07:34:34.200Z,67.94
2023-02-19T07:37:00.699Z,67.98
2023-02-19T07:39:27.252Z,68.15
2023-02-19T07:41:53.753Z,68.25
2023-02-19T07:44:20.216Z,68.29
2023-02-19T07:46:46.699Z,68.37
2023-02-19T07:49:13.183Z,68.27
2023-02-19T07:51:39.658Z,68.10
2023-02-19T07:54:06.145Z,68.18
2023-02-19T07:56:32.623Z,68.38
2023-02-19T07:59:00.321Z,68.23
2023-02-19T08:01:26.856Z,68.26
2023-02-19T08:03:53.401Z,68.14
2023-02-19T08:06:19.867Z,68.18
2023-02-19T08:08:46.318Z,68.10
2023-02-19T08:11:12.935Z,67.92
2023-02-19T08:13:39.554Z,68.10
2023-02-19T08:16:20.053Z,68.34
2023-02-19T08:18:50.952Z,68.65
2023-02-19T08:21:17.458Z,69.05
2023-02-19T08:23:44.320Z,69.62
2023-02-19T08:26:10.930Z,70.32
2023-02-19T08:28:37.396Z,70.58
2023-02-19T08:31:06.961Z,70.93
2023-02-19T08:33:33.513Z,71.69
2023-02-19T08:36:08.259Z,72.50
2023-02-19T08:38:36.419Z,72.77
2023-02-19T08:41:08.530Z,73.29
2023-02-19T08:43:35.444Z,74.13
2023-02-19T08:46:02.657Z,74.43
2023-02-19T08:48:29.240Z,74.48
2023-02-19T08:51:05.184Z,75.36
2023-02-19T08:53:32.728Z,75.12
2023-02-19T08:55:59.303Z,75.19
2023-02-19T08:58:25.799Z,75.49
2023-02-19T09:00:52.783Z,75.27
2023-02-19T09:03:19.372Z,75.31
2023-02-19T09:05:45.974Z,75.31
2023-02-19T09:08:12.529Z,75.52
2023-02-19T09:10:39.668Z,75.65
2023-02-19T09:13:06.185Z,75.94
2023-02-19T09:15:32.779Z,76.38
2023-02-19T09:18:02.873Z,76.72
2023-02-19T09:20:30.248Z,76.91
2023-02-19T09:22:58.009Z,77.18
2023-02-19T09:25:25.148Z,77.78
2023-02-19T09:27:55.099Z,77.76
2023-02-19T09:30:21.588Z,77.84
2023-02-19T09:32:48.101Z,78.03
2023-02-19T09:35:14.686Z,78.20
2023-02-19T09:37:41.189Z,78.15
2023-02-19T09:40:09.020Z,78.45
2023-02-19T09:42:35.599Z,78.44
2023-02-19T09:45:04.853Z,78.49
2023-02-19T09:47:33.663Z,78.44
2023-02-19T09:50:08.904Z,78.22
2023-02-19T09:52:58.441Z,78.30
2023-02-19T09:55:34.659Z,78.49
2023-02-19T09:58:08.393Z,78.31
2023-02-19T10:00:36.912Z,78.41
2023-02-19T10:03:31.287Z,77.97
2023-02-19T10:06:01.009Z,77.81
2023-02-19T10:08:27.674Z,77.63
2023-02-19T10:10:54.645Z,77.46
2023-02-19T10:13:24.130Z,76.79
2023-02-19T10:15:54.161Z,75.59
2023-02-19T10:18:23.877Z,67.88
2023-02-19T10:20:52.483Z,59.51
2023-02-19T10:23:19.466Z,49.76
2023-02-19T10:25:57.818Z,42.05
2023-02-19T10:28:28.774Z,39.10
2023-02-19T10:30:58.918Z,36.88
2023-02-19T10:33:26.255Z,34.07
2023-02-19T10:36:02.352Z,31.65
2023-02-19T10:38:38.659Z,28.00
2023-02-19T10:41:15.343Z,27.31
2023-02-19T10:43:51.160Z,27.41
2023-02-19T10:46:31.362Z,28.25
2023-02-19T10:49:04.653Z,29.67
2023-02-19T10:51:35.415Z,29.15
2023-02-19T10:54:04.806Z,28.86
2023-02-19T10:56:31.305Z,28.56
2023-02-19T10:59:26.515Z,27.02
2023-02-19T11:01:58.746Z,25.28
2023-02-19T11:04:27.952Z,24.42
2023-02-19T11:06:54.767Z,23.38
2023-02-19T11:09:26.616Z,22.68
2023-02-19T11:11:54.412Z,20.69
2023-02-19T11:14:24.193Z,19.08
2023-02-19T11:16:54.527Z,18.78
2023-02-19T11:19:29.115Z,18.88
2023-02-19T11:21:57.057Z,19.62
2023-02-19T11:24:32.261Z,21.12
2023-02-19T11:26:58.956Z,22.85
2023-02-19T11:29:25.534Z,23.72
2023-02-19T11:31:52.089Z,25.23
2023-02-19T11:34:18.508Z,26.95
2023-02-19T11:36:44.985Z,26.10
2023-02-19T11:39:17.576Z,24.14
2023-02-19T11:41:56.238Z,22.77
2023-02-19T11:44:47.472Z,20.91
2023-02-19T11:47:56.977Z,19.93
2023-02-19T11:50:41.958Z,18.61
2023-02-19T11:53:14.426Z,18.07
2023-02-19T11:55:46.535Z,17.97
2023-02-19T11:58:34.781Z,18.64
2023-02-19T12:01:10.457Z,19.31
2023-02-19T12:03:59.022Z,19.89
2023-02-19T12:06:52.868Z,19.93
2023-02-19T12:09:45.090Z,21.20
2023-02-19T12:12:14.711Z,23.23
2023-02-19T12:14:43.894Z,24.90
2023-02-19T12:17:41.676Z,26.77
2023-02-19T12:20:20.296Z,28.36
2023-02-19T12:23:23.412Z,29.96
2023-02-19T12:25:52.571Z,31.68
2023-02-19T12:28:25.138Z,33.38
2023-02-19T12:31:33.518Z,34.39
2023-02-19T12:34:37.381Z,35.18
2023-02-19T12:37:22.731Z,36.49
2023-02-19T12:40:26.654Z,37.52
2023-02-19T12:43:02.027Z,38.46
2023-02-19T12:45:40.898Z,39.27
2023-02-19T12:48:27.575Z,39.78
2023-02-19T12:51:02.686Z,39.83
2023-02-19T12:53:31.876Z,40.89
2023-02-19T12:56:01.186Z,41.29
2023-02-19T12:58:39.588Z,41.60
2023-02-19T13:01:11.213Z,43.98
2023-02-19T13:03:50.164Z,46.40
2023-02-19T13:06:36.341Z,50.02
2023-02-19T13:09:07.766Z,51.54
2023-02-19T13:11:41.953Z,52.92
2023-02-19T13:14:43.384Z,53.44
2023-02-19T13:17:41.445Z,54.24
2023-02-19T13:20:19.929Z,55.38
2023-02-19T13:22:59.946Z,55.77
2023-02-19T13:25:48.351Z,55.83
2023-02-19T13:28:31.934Z,56.50
2023-02-19T13:31:17.273Z,56.62
2023-02-19T13:34:26.365Z,56.76
2023-02-19T13:36:54.421Z,57.10
2023-02-19T13:39:22.509Z,57.15
2023-02-19T13:41:51.796Z,57.02
2023-02-19T13:44:21.769Z,57.13
2023-02-19T13:46:50.227Z,57.41
2023-02-19T13:49:22.803Z,56.81
2023-02-19T13:52:01.895Z,57.11
2023-02-19T13:54:30.554Z,56.77
2023-02-19T13:57:29.218Z,56.81
2023-02-19T13:59:57.652Z,56.81
2023-02-19T14:02:33.640Z,57.22
2023-02-19T14:05:10.175Z,57.10
2023-02-19T14:07:52.895Z,58.92
2023-02-19T14:10:50.722Z,59.96
2023-02-19T14:13:51.626Z,61.56
2023-02-19T14:16:36.337Z,61.84
2023-02-19T14:19:02.850Z,62.06
2023-02-19T14:21:38.741Z,62.32
2023-02-19T14:24:10.123Z,62.82
2023-02-19T14:26:36.846Z,62.98
2023-02-19T14:29:08.000Z,63.03
2023-02-19T14:31:38.291Z,63.39
2023-02-19T14:34:06.189Z,62.81
2023-02-19T14:36:42.276Z,62.73
2023-02-19T14:39:31.614Z,62.67
2023-02-19T14:42:05.582Z,63.08
2023-02-19T14:44:46.138Z,61.76
2023-02-19T14:47:19.144Z,60.60
2023-02-19T14:49:53.926Z,59.10
2023-02-19T14:52:45.774Z,58.55
2023-02-19T14:55:12.103Z,58.62
2023-02-19T14:57:41.601Z,58.78
2023-02-19T15:00:29.668Z,59.04
2023-02-19T15:02:57.551Z,59.46
2023-02-19T15:05:25.384Z,59.96
2023-02-19T15:07:54.870Z,60.24
2023-02-19T15:10:21.895Z,60.58
2023-02-19T15:12:58.873Z,60.83
2023-02-19T15:15:28.846Z,61.11
2023-02-19T15:17:57.572Z,61.52
2023-02-19T15:20:29.122Z,61.81
2023-02-19T15:22:56.315Z,61.71
2023-02-19T15:25:27.058Z,62.14
2023-02-19T15:27:53.649Z,61.84
2023-02-19T15:30:25.919Z,61.92
2023-02-19T15:32:58.300Z,61.77
2023-02-19T15:35:27.631Z,62.06
2023-02-19T15:37:54.929Z,62.17
2023-02-19T15:40:29.280Z,62.24
2023-02-19T15:42:56.486Z,62.04
2023-02-19T15:45:40.656Z,61.58
2023-02-19T15:48:12.728Z,61.56
2023-02-19T15:50:45.879Z,61.57
2023-02-19T15:53:28.736Z,61.46
2023-02-19T15:56:04.010Z,61.37
2023-02-19T15:58:41.690Z,61.32
2023-02-19T16:01:23.286Z,61.47
2023-02-19T16:03:49.814Z,61.56
2023-02-19T16:06:17.935Z,61.72
2023-02-19T16:09:05.314Z,61.75
2023-02-19T16:11:52.824Z,61.63
2023-02-19T16:14:38.687Z,61.88
2023-02-19T16:17:11.133Z,62.07
2023-02-19T16:19:52.555Z,61.81
2023-02-19T16:22:22.474Z,61.98
2023-02-19T16:24:53.369Z,62.07
2023-02-19T16:27:33.061Z,62.05
2023-02-19T16:30:06.443Z,62.28
2023-02-19T16:32:33.006Z,62.39
2023-02-19T16:34:59.600Z,62.40
2023-02-19T16:37:36.607Z,62.50
2023-02-19T16:40:08.923Z,62.72
2023-02-19T16:43:24.473Z,62.78
2023-02-19T16:45:51.089Z,63.40
2023-02-19T16:48:20.997Z,63.89
2023-02-19T16:50:47.462Z,65.15
2023-02-19T16:53:20.071Z,65.89
2023-02-19T16:55:47.393Z,65.68
2023-02-19T16:58:14.013Z,65.07
2023-02-19T17:00:40.553Z,64.41
2023-02-19T17:03:10.652Z,64.13
2023-02-19T17:05:37.978Z,64.32
2023-02-19T17:08:19.897Z,64.36
2023-02-19T17:10:46.521Z,64.42
2023-02-19T17:13:12.954Z,64.28
2023-02-19T17:15:39.437Z,64.29
2023-02-19T17:18:05.918Z,64.51
2023-02-19T17:20:34.467Z,64.70
2023-02-19T17:23:00.948Z,64.61
2023-02-19T17:25:27.964Z,64.62
2023-02-19T17:27:54.488Z,64.74
2023-02-19T17:30:27.602Z,64.69
2023-02-19T17:32:54.168Z,64.34
2023-02-19T17:35:21.548Z,64.11
2023-02-19T17:37:48.057Z,63.84
2023-02-19T17:40:33.419Z,63.71
2023-02-19T17:43:01.405Z,63.25
2023-02-19T17:45:28.386Z,63.05
2023-02-19T17:47:54.893Z,62.96
2023-02-19T17:50:23.629Z,62.81
2023-02-19T17:52:50.399Z,62.69
2023-02-19T17:55:18.154Z,62.43
2023-02-19T17:57:49.517Z,62.32
2023-02-19T18:00:18.705Z,61.98
2023-02-19T18:02:45.276Z,61.82
2023-02-19T18:05:12.106Z,61.59
2023-02-19T18:07:38.846Z,61.66
2023-02-19T18:10:06.786Z,61.62
2023-02-19T18:12:33.360Z,61.67
2023-02-19T18:14:59.958Z,61.79
2023-02-19T18:17:26.703Z,61.80
2023-02-19T18:19:53.942Z,61.87
2023-02-19T18:22:20.515Z,62.15
2023-02-19T18:24:48.480Z,62.23
2023-02-19T18:27:16.106Z,62.23
2023-02-19T18:29:42.637Z,62.39
2023-02-19T18:32:09.309Z,62.35
2023-02-19T18:34:35.893Z,62.62
2023-02-19T18:37:02.417Z,62.69
2023-02-19T18:39:32.565Z,62.71
2023-02-19T18:41:59.086Z,62.73
2023-02-19T18:44:25.544Z,62.74
2023-02-19T18:46:52.797Z,62.79
2023-02-19T18:49:19.894Z,62.79
2023-02-19T18:51:46.990Z,62.83
2023-02-19T18:54:13.722Z,62.84
2023-02-19T18:56:41.716Z,63.00
2023-02-19T18:59:08.210Z,62.98
2023-02-19T19:01:34.863Z,63.14
2023-02-19T19:04:01.477Z,63.39
2023-02-19T19:06:31.015Z,63.39
2023-02-19T19:08:57.598Z,63.75
2023-02-19T19:11:25.394Z,63.93
2023-02-19T19:13:52.097Z,64.13
2023-02-19T19:16:18.652Z,64.29
2023-02-19T19:18:47.302Z,64.53
2023-02-19T19:21:14.692Z,64.44
2023-02-19T19:23:41.219Z,64.50
2023-02-19T19:26:07.875Z,64.78
2023-02-19T19:28:34.386Z,64.82
2023-02-19T19:31:01.077Z,64.67
2023-02-19T19:33:28.100Z,64.93
2023-02-19T19:35:54.744Z,65.03
2023-02-19T19:38:21.248Z,65.13
2023-02-19T19:40:47.784Z,65.28
2023-02-19T19:43:14.312Z,66.09
2023-02-19T19:45:40.813Z,65.86
2023-02-19T19:48:07.457Z,65.62
2023-02-19T19:50:33.923Z,65.76
2023-02-19T19:53:00.404Z,65.71
2023-02-19T19:55:26.899Z,65.88
2023-02-19T19:57:53.408Z,65.84
2023-02-19T20:00:20.704Z,65.82
2023-02-19T20:02:47.262Z,65.88
2023-02-19T20:05:14.898Z,66.02
2023-02-19T20:07:41.476Z,65.92
2023-02-19T20:10:08.661Z,65.74
2023-02-19T20:12:35.129Z,65.53
2023-02-19T20:15:01.641Z,65.43
2023-02-19T20:17:28.291Z,65.27
2023-02-19T20:19:54.921Z,65.28
2023-02-19T20:22:21.523Z,65.26
2023-02-19T20:24:52.202Z,65.30
2023-02-19T20:27:20.915Z,65.18
2023-02-19T20:29:47.637Z,64.91
2023-02-19T20:32:15.832Z,65.02
2023-02-19T20:34:42.323Z,65.02
2023-02-19T20:37:08.865Z,65.12
2023-02-19T20:39:35.871Z,65.21
2023-02-19T20:42:02.422Z,65.36
2023-02-19T20:44:29.251Z,65.41
2023-02-19T20:46:57.428Z,65.53
2023-02-19T20:49:26.675Z,65.29
2023-02-19T20:51:56.651Z,65.15
2023-02-19T20:54:26.367Z,63.59
2023-02-19T20:56:54.988Z,63.11
2023-02-19T20:59:25.347Z,62.06
2023-02-19T21:01:51.900Z,61.20
2023-02-19T21:04:19.208Z,61.08
2023-02-19T21:06:46.021Z,61.22
2023-02-19T21:09:12.892Z,60.52
2023-02-19T21:11:39.364Z,60.49
2023-02-19T21:14:05.849Z,60.54
2023-02-19T21:16:32.543Z,60.52
2023-02-19T21:18:59.652Z,60.23
2023-02-19T21:21:26.436Z,60.38
2023-02-19T21:23:57.679Z,60.36
2023-02-19T21:26:24.732Z,60.22
2023-02-19T21:28:51.785Z,59.65
2023-02-19T21:31:19.139Z,59.71
2023-02-19T21:33:46.081Z,59.05
2023-02-19T21:36:13.887Z,58.52
2023-02-19T21:38:40.523Z,58.45
2023-02-19T21:41:06.996Z,58.94
2023-02-19T21:43:33.487Z,58.69
2023-02-19T21:46:00.049Z,59.01
2023-02-19T21:48:26.649Z,58.57
2023-02-19T21:50:53.134Z,57.98
2023-02-19T21:53:19.594Z,58.04
2023-02-19T21:55:56.630Z,57.36
2023-02-19T21:58:25.444Z,56.26
2023-02-19T22:00:51.953Z,55.09
2023-02-19T22:03:18.458Z,54.69
2023-02-19T22:05:44.979Z,54.25
2023-02-19T22:08:11.509Z,53.48
2023-02-19T22:10:38.044Z,53.13
2023-02-19T22:13:04.529Z,53.32
2023-02-19T22:15:31.018Z,53.64
2023-02-19T22:17:57.490Z,52.84
2023-02-19T22:20:23.935Z,52.94
2023-02-19T22:22:50.406Z,52.28
2023-02-19T22:25:16.955Z,51.47
2023-02-19T22:27:43.493Z,51.79
2023-02-19T22:30:10.810Z,51.82
2023-02-19T22:32:37.452Z,51.59
2023-02-19T22:35:04.062Z,51.86
2023-02-19T22:37:30.542Z,51.03
2023-02-19T22:39:57.014Z,51.55
2023-02-19T22:42:23.528Z,51.30
2023-02-19T22:44:50.014Z,51.63
2023-02-19T22:47:18.858Z,52.14
2023-02-19T22:49:45.384Z,52.05
2023-02-19T22:52:12.598Z,51.84
2023-02-19T22:54:39.235Z,51.33
2023-02-19T22:57:05.936Z,51.55
2023-02-19T22:59:32.430Z,51.65
2023-02-19T23:01:58.903Z,51.26
2023-02-19T23:04:25.759Z,51.21
2023-02-19T23:06:52.431Z,50.85
2023-02-19T23:09:22.506Z,50.87
2023-02-19T23:11:49.016Z,50.96
2023-02-19T23:14:17.652Z,51.08
2023-02-19T23:16:44.280Z,51.10
2023-02-19T23:19:14.565Z,50.75
2023-02-19T23:21:43.913Z,50.02
2023-02-19T23:24:11.851Z,50.33
2023-02-19T23:26:43.240Z,50.51
2023-02-19T23:29:09.690Z,50.41
2023-02-19T23:31:36.301Z,50.02
2023-02-19T23:34:03.150Z,49.64
2023-02-19T23:36:29.613Z,49.74
2023-02-19T23:38:56.092Z,49.55
2023-02-19T23:41:22.567Z,48.93
2023-02-19T23:43:49.092Z,49.11
2023-02-19T23:46:17.879Z,49.26
2023-02-19T23:48:45.060Z,49.43
2023-02-19T23:51:13.023Z,48.67
2023-02-19T23:53:39.582Z,48.81
2023-02-19T23:56:06.589Z,49.01
2023-02-19T23:58:33.094Z,49.24
